sensor_id;sensor_type;location;lat;lon;timestamp;temperature;humidity
21039;DHT22;10678;51.002;4.786;2023-06-22T00:00:56;22.90;99.90
21039;DHT22;10678;51.002;4.786;2023-06-22T00:03:23;22.80;99.90
21039;DHT22;10678;51.002;4.786;2023-06-22T00:05:49;22.70;99.90
21039;DHT22;10678;51.002;4.786;2023-06-22T00:08:16;22.70;99.90
21039;DHT22;10678;51.002;4.786;2023-06-22T00:10:43;22.80;99.90
21039;DHT22;10678;51.002;4.786;2023-06-22T00:13:09;22.80;99.90
21039;DHT22;10678;51.002;4.786;2023-06-22T00:15:36;22.80;99.90
21039;DHT22;10678;51.002;4.786;2023-06-22T00:18:03;22.80;99.90
21039;DHT22;10678;51.002;4.786;2023-06-22T00:20:28;22.80;99.90
21039;DHT22;10678;51.002;4.786;2023-06-22T00:22:55;22.80;99.90
21039;DHT22;10678;51.002;4.786;2023-06-22T00:25:21;22.80;99.90
21039;DHT22;10678;51.002;4.786;2023-06-22T00:27:47;22.70;99.90
21039;DHT22;10678;51.002;4.786;2023-06-22T00:30:15;22.70;99.90
21039;DHT22;10678;51.002;4.786;2023-06-22T00:32:40;22.70;99.90
21039;DHT22;10678;51.002;4.786;2023-06-22T00:35:07;22.70;99.90
21039;DHT22;10678;51.002;4.786;2023-06-22T00:37:32;22.60;99.90
21039;DHT22;10678;51.002;4.786;2023-06-22T00:39:58;22.50;99.90
21039;DHT22;10678;51.002;4.786;2023-06-22T00:42:24;22.50;99.90
21039;DHT22;10678;51.002;4.786;2023-06-22T00:44:50;22.60;99.90
21039;DHT22;10678;51.002;4.786;2023-06-22T00:47:17;22.60;99.90
21039;DHT22;10678;51.002;4.786;2023-06-22T00:49:44;22.60;99.90
21039;DHT22;10678;51.002;4.786;2023-06-22T00:52:10;22.50;99.90
21039;DHT22;10678;51.002;4.786;2023-06-22T00:54:42;22.50;99.90
21039;DHT22;10678;51.002;4.786;2023-06-22T00:57:12;22.50;99.90
21039;DHT22;10678;51.002;4.786;2023-06-22T00:59:42;22.50;99.90
21039;DHT22;10678;51.002;4.786;2023-06-22T01:02:08;22.50;99.90
21039;DHT22;10678;51.002;4.786;2023-06-22T01:04:36;22.50;99.90
21039;DHT22;10678;51.002;4.786;2023-06-22T01:09:37;22.40;99.90
21039;DHT22;10678;51.002;4.786;2023-06-22T01:12:07;22.40;99.90
21039;DHT22;10678;51.002;4.786;2023-06-22T01:14:35;22.30;99.90
21039;DHT22;10678;51.002;4.786;2023-06-22T01:17:05;22.40;99.90
21039;DHT22;10678;51.002;4.786;2023-06-22T01:22:05;22.50;99.90
21039;DHT22;10678;51.002;4.786;2023-06-22T01:30:11;22.40;99.90
21039;DHT22;10678;51.002;4.786;2023-06-22T01:32:40;22.40;99.90
21039;DHT22;10678;51.002;4.786;2023-06-22T01:35:08;22.40;99.90
21039;DHT22;10678;51.002;4.786;2023-06-22T01:37:37;22.40;99.90
21039;DHT22;10678;51.002;4.786;2023-06-22T01:40:04;22.40;99.90
21039;DHT22;10678;51.002;4.786;2023-06-22T01:42:31;22.30;99.90
21039;DHT22;10678;51.002;4.786;2023-06-22T01:44:57;22.40;99.90
21039;DHT22;10678;51.002;4.786;2023-06-22T01:47:24;22.30;99.90
21039;DHT22;10678;51.002;4.786;2023-06-22T01:49:50;22.30;99.90
21039;DHT22;10678;51.002;4.786;2023-06-22T01:52:19;22.20;99.90
21039;DHT22;10678;51.002;4.786;2023-06-22T01:54:46;22.30;99.90
21039;DHT22;10678;51.002;4.786;2023-06-22T01:57:13;22.20;99.90
21039;DHT22;10678;51.002;4.786;2023-06-22T02:02:11;22.10;99.90
21039;DHT22;10678;51.002;4.786;2023-06-22T02:04:44;22.10;99.90
21039;DHT22;10678;51.002;4.786;2023-06-22T02:07:14;22.10;99.90
21039;DHT22;10678;51.002;4.786;2023-06-22T02:09:44;22.10;99.90
21039;DHT22;10678;51.002;4.786;2023-06-22T02:12:12;22.10;99.90
21039;DHT22;10678;51.002;4.786;2023-06-22T02:14:39;22.10;99.90
21039;DHT22;10678;51.002;4.786;2023-06-22T02:17:05;22.00;99.90
21039;DHT22;10678;51.002;4.786;2023-06-22T02:19:35;21.90;99.90
21039;DHT22;10678;51.002;4.786;2023-06-22T02:22:01;21.80;99.90
21039;DHT22;10678;51.002;4.786;2023-06-22T02:24:27;21.80;99.90
21039;DHT22;10678;51.002;4.786;2023-06-22T02:26:52;21.70;99.90
21039;DHT22;10678;51.002;4.786;2023-06-22T02:29:18;21.80;99.90
21039;DHT22;10678;51.002;4.786;2023-06-22T02:31:43;21.70;99.90
21039;DHT22;10678;51.002;4.786;2023-06-22T02:34:09;21.70;99.90
21039;DHT22;10678;51.002;4.786;2023-06-22T02:36:35;21.70;99.90
21039;DHT22;10678;51.002;4.786;2023-06-22T02:39:00;21.60;99.90
21039;DHT22;10678;51.002;4.786;2023-06-22T02:41:27;21.60;99.90
21039;DHT22;10678;51.002;4.786;2023-06-22T02:43:53;21.50;99.90
21039;DHT22;10678;51.002;4.786;2023-06-22T02:46:18;21.50;99.90
21039;DHT22;10678;51.002;4.786;2023-06-22T02:48:44;21.40;99.90
21039;DHT22;10678;51.002;4.786;2023-06-22T02:51:10;21.40;99.90
21039;DHT22;10678;51.002;4.786;2023-06-22T02:53:35;21.40;99.90
21039;DHT22;10678;51.002;4.786;2023-06-22T02:56:04;21.40;99.90
21039;DHT22;10678;51.002;4.786;2023-06-22T02:58:32;21.40;99.90
21039;DHT22;10678;51.002;4.786;2023-06-22T03:01:04;21.40;99.90
21039;DHT22;10678;51.002;4.786;2023-06-22T03:03:30;21.40;99.90
21039;DHT22;10678;51.002;4.786;2023-06-22T03:05:56;21.30;99.90
21039;DHT22;10678;51.002;4.786;2023-06-22T03:08:21;21.30;99.90
21039;DHT22;10678;51.002;4.786;2023-06-22T03:10:47;21.30;99.90
21039;DHT22;10678;51.002;4.786;2023-06-22T03:13:12;21.30;99.90
21039;DHT22;10678;51.002;4.786;2023-06-22T03:15:38;21.30;99.90
21039;DHT22;10678;51.002;4.786;2023-06-22T03:18:03;21.30;99.90
21039;DHT22;10678;51.002;4.786;2023-06-22T03:20:29;21.30;99.90
21039;DHT22;10678;51.002;4.786;2023-06-22T03:22:59;21.30;99.90
21039;DHT22;10678;51.002;4.786;2023-06-22T03:25:25;21.30;99.90
21039;DHT22;10678;51.002;4.786;2023-06-22T03:27:50;21.30;99.90
21039;DHT22;10678;51.002;4.786;2023-06-22T03:30:16;21.20;99.90
21039;DHT22;10678;51.002;4.786;2023-06-22T03:32:41;21.20;99.90
21039;DHT22;10678;51.002;4.786;2023-06-22T03:35:09;21.30;99.90
21039;DHT22;10678;51.002;4.786;2023-06-22T03:37:34;21.30;99.90
21039;DHT22;10678;51.002;4.786;2023-06-22T03:40:00;21.30;99.90
21039;DHT22;10678;51.002;4.786;2023-06-22T03:42:26;21.30;99.90
21039;DHT22;10678;51.002;4.786;2023-06-22T03:44:52;21.30;99.90
21039;DHT22;10678;51.002;4.786;2023-06-22T03:47:18;21.30;99.90
21039;DHT22;10678;51.002;4.786;2023-06-22T03:49:43;21.30;99.90
21039;DHT22;10678;51.002;4.786;2023-06-22T03:52:09;21.40;99.90
21039;DHT22;10678;51.002;4.786;2023-06-22T03:54:36;21.40;99.90
21039;DHT22;10678;51.002;4.786;2023-06-22T03:57:02;21.40;99.90
21039;DHT22;10678;51.002;4.786;2023-06-22T03:59:27;21.30;99.90
21039;DHT22;10678;51.002;4.786;2023-06-22T04:01:53;21.30;99.90
21039;DHT22;10678;51.002;4.786;2023-06-22T04:04:19;21.30;99.90
21039;DHT22;10678;51.002;4.786;2023-06-22T04:06:44;21.40;99.90
21039;DHT22;10678;51.002;4.786;2023-06-22T04:09:10;21.50;99.90
21039;DHT22;10678;51.002;4.786;2023-06-22T04:11:35;21.50;99.90
21039;DHT22;10678;51.002;4.786;2023-06-22T04:14:01;21.50;99.90
21039;DHT22;10678;51.002;4.786;2023-06-22T04:16:27;21.50;99.90
21039;DHT22;10678;51.002;4.786;2023-06-22T04:18:52;21.50;99.90
21039;DHT22;10678;51.002;4.786;2023-06-22T04:21:18;21.50;99.90
21039;DHT22;10678;51.002;4.786;2023-06-22T04:23:45;21.50;99.90
21039;DHT22;10678;51.002;4.786;2023-06-22T04:26:12;21.60;99.90
21039;DHT22;10678;51.002;4.786;2023-06-22T04:28:37;21.60;99.90
21039;DHT22;10678;51.002;4.786;2023-06-22T04:31:03;21.60;99.90
21039;DHT22;10678;51.002;4.786;2023-06-22T04:33:30;21.60;99.90
21039;DHT22;10678;51.002;4.786;2023-06-22T04:35:55;21.50;99.90
21039;DHT22;10678;51.002;4.786;2023-06-22T04:38:26;21.60;99.90
21039;DHT22;10678;51.002;4.786;2023-06-22T04:40:52;21.60;99.90
21039;DHT22;10678;51.002;4.786;2023-06-22T04:43:19;21.60;99.90
21039;DHT22;10678;51.002;4.786;2023-06-22T04:45:44;21.60;99.90
21039;DHT22;10678;51.002;4.786;2023-06-22T04:48:10;21.70;99.90
21039;DHT22;10678;51.002;4.786;2023-06-22T04:50:41;21.70;99.90
21039;DHT22;10678;51.002;4.786;2023-06-22T04:53:07;21.70;99.90
21039;DHT22;10678;51.002;4.786;2023-06-22T04:55:32;21.70;99.90
21039;DHT22;10678;51.002;4.786;2023-06-22T04:57:58;21.70;99.90
21039;DHT22;10678;51.002;4.786;2023-06-22T05:00:30;21.70;99.90
21039;DHT22;10678;51.002;4.786;2023-06-22T05:02:56;21.60;99.90
21039;DHT22;10678;51.002;4.786;2023-06-22T05:05:23;21.70;99.90
21039;DHT22;10678;51.002;4.786;2023-06-22T05:07:50;21.70;99.90
21039;DHT22;10678;51.002;4.786;2023-06-22T05:10:19;21.70;99.90
21039;DHT22;10678;51.002;4.786;2023-06-22T05:12:45;21.80;99.90
21039;DHT22;10678;51.002;4.786;2023-06-22T05:15:11;21.80;99.90
21039;DHT22;10678;51.002;4.786;2023-06-22T05:17:37;21.90;99.90
21039;DHT22;10678;51.002;4.786;2023-06-22T05:20:11;21.90;99.90
21039;DHT22;10678;51.002;4.786;2023-06-22T05:22:38;22.00;99.90
21039;DHT22;10678;51.002;4.786;2023-06-22T05:25:09;22.00;99.90
21039;DHT22;10678;51.002;4.786;2023-06-22T05:27:35;22.00;99.90
21039;DHT22;10678;51.002;4.786;2023-06-22T05:30:06;22.00;99.90
21039;DHT22;10678;51.002;4.786;2023-06-22T05:32:32;22.00;99.90
21039;DHT22;10678;51.002;4.786;2023-06-22T05:34:59;22.00;99.90
21039;DHT22;10678;51.002;4.786;2023-06-22T05:37:24;22.00;99.90
21039;DHT22;10678;51.002;4.786;2023-06-22T05:39:50;22.00;99.90
21039;DHT22;10678;51.002;4.786;2023-06-22T05:42:15;22.00;99.90
21039;DHT22;10678;51.002;4.786;2023-06-22T05:44:41;22.10;99.90
21039;DHT22;10678;51.002;4.786;2023-06-22T05:47:06;22.10;99.90
21039;DHT22;10678;51.002;4.786;2023-06-22T05:49:32;22.10;99.90
21039;DHT22;10678;51.002;4.786;2023-06-22T05:51:58;22.10;99.90
21039;DHT22;10678;51.002;4.786;2023-06-22T05:54:25;22.10;99.90
21039;DHT22;10678;51.002;4.786;2023-06-22T05:56:51;22.10;99.90
21039;DHT22;10678;51.002;4.786;2023-06-22T05:59:17;22.10;99.90
21039;DHT22;10678;51.002;4.786;2023-06-22T06:01:42;22.20;99.90
21039;DHT22;10678;51.002;4.786;2023-06-22T06:04:08;22.20;99.90
21039;DHT22;10678;51.002;4.786;2023-06-22T06:06:34;22.20;99.90
21039;DHT22;10678;51.002;4.786;2023-06-22T06:09:03;22.30;99.90
21039;DHT22;10678;51.002;4.786;2023-06-22T06:11:29;22.40;99.90
21039;DHT22;10678;51.002;4.786;2023-06-22T06:13:54;22.40;99.90
21039;DHT22;10678;51.002;4.786;2023-06-22T06:16:20;22.40;99.90
21039;DHT22;10678;51.002;4.786;2023-06-22T06:18:45;22.60;99.90
21039;DHT22;10678;51.002;4.786;2023-06-22T06:21:11;22.80;99.90
21039;DHT22;10678;51.002;4.786;2023-06-22T06:23:36;23.00;99.90
21039;DHT22;10678;51.002;4.786;2023-06-22T06:26:02;23.00;99.90
21039;DHT22;10678;51.002;4.786;2023-06-22T06:28:32;22.80;99.90
21039;DHT22;10678;51.002;4.786;2023-06-22T06:30:58;22.80;99.90
21039;DHT22;10678;51.002;4.786;2023-06-22T06:33:23;22.90;99.90
21039;DHT22;10678;51.002;4.786;2023-06-22T06:35:49;23.00;99.90
21039;DHT22;10678;51.002;4.786;2023-06-22T06:38:15;22.90;99.90
21039;DHT22;10678;51.002;4.786;2023-06-22T06:40:41;22.80;99.90
21039;DHT22;10678;51.002;4.786;2023-06-22T06:43:06;22.90;99.90
21039;DHT22;10678;51.002;4.786;2023-06-22T06:45:32;23.00;99.90
21039;DHT22;10678;51.002;4.786;2023-06-22T06:48:00;22.90;99.90
21039;DHT22;10678;51.002;4.786;2023-06-22T06:50:25;22.90;99.90
21039;DHT22;10678;51.002;4.786;2023-06-22T06:52:51;23.00;99.90
21039;DHT22;10678;51.002;4.786;2023-06-22T06:55:17;23.20;99.90
21039;DHT22;10678;51.002;4.786;2023-06-22T06:57:42;23.30;99.90
21039;DHT22;10678;51.002;4.786;2023-06-22T07:00:11;23.30;99.90
21039;DHT22;10678;51.002;4.786;2023-06-22T07:02:39;23.30;99.90
21039;DHT22;10678;51.002;4.786;2023-06-22T07:05:05;23.30;99.90
21039;DHT22;10678;51.002;4.786;2023-06-22T07:07:32;23.20;99.90
21039;DHT22;10678;51.002;4.786;2023-06-22T07:09:58;23.10;99.90
21039;DHT22;10678;51.002;4.786;2023-06-22T07:12:23;23.10;99.90
21039;DHT22;10678;51.002;4.786;2023-06-22T07:14:49;23.00;99.90
21039;DHT22;10678;51.002;4.786;2023-06-22T07:17:15;23.10;99.90
21039;DHT22;10678;51.002;4.786;2023-06-22T07:19:41;23.10;99.90
21039;DHT22;10678;51.002;4.786;2023-06-22T07:22:07;23.10;99.90
21039;DHT22;10678;51.002;4.786;2023-06-22T07:24:33;23.10;99.90
21039;DHT22;10678;51.002;4.786;2023-06-22T07:26:58;23.00;99.90
21039;DHT22;10678;51.002;4.786;2023-06-22T07:29:25;23.00;99.90
21039;DHT22;10678;51.002;4.786;2023-06-22T07:31:52;22.90;99.90
21039;DHT22;10678;51.002;4.786;2023-06-22T07:34:18;22.90;99.90
21039;DHT22;10678;51.002;4.786;2023-06-22T07:36:44;22.80;99.90
21039;DHT22;10678;51.002;4.786;2023-06-22T07:39:10;22.90;99.90
21039;DHT22;10678;51.002;4.786;2023-06-22T07:41:35;23.00;99.90
21039;DHT22;10678;51.002;4.786;2023-06-22T07:44:02;22.90;99.90
21039;DHT22;10678;51.002;4.786;2023-06-22T07:46:29;23.00;99.90
21039;DHT22;10678;51.002;4.786;2023-06-22T07:48:58;23.00;99.90
21039;DHT22;10678;51.002;4.786;2023-06-22T07:51:25;23.10;99.90
21039;DHT22;10678;51.002;4.786;2023-06-22T07:53:51;23.20;99.90
21039;DHT22;10678;51.002;4.786;2023-06-22T07:56:16;23.10;99.90
21039;DHT22;10678;51.002;4.786;2023-06-22T07:58:45;23.00;99.90
21039;DHT22;10678;51.002;4.786;2023-06-22T08:01:12;23.00;99.90
21039;DHT22;10678;51.002;4.786;2023-06-22T08:03:37;23.00;99.90
21039;DHT22;10678;51.002;4.786;2023-06-22T08:06:04;23.10;99.90
21039;DHT22;10678;51.002;4.786;2023-06-22T08:08:31;23.00;99.90
21039;DHT22;10678;51.002;4.786;2023-06-22T08:10:56;22.90;99.90
21039;DHT22;10678;51.002;4.786;2023-06-22T08:13:22;22.80;99.90
21039;DHT22;10678;51.002;4.786;2023-06-22T08:15:49;22.80;99.90
21039;DHT22;10678;51.002;4.786;2023-06-22T08:18:14;22.80;99.90
21039;DHT22;10678;51.002;4.786;2023-06-22T08:20:40;22.70;99.90
21039;DHT22;10678;51.002;4.786;2023-06-22T08:23:06;22.80;99.90
21039;DHT22;10678;51.002;4.786;2023-06-22T08:25:35;22.90;99.90
21039;DHT22;10678;51.002;4.786;2023-06-22T08:28:02;22.80;99.90
21039;DHT22;10678;51.002;4.786;2023-06-22T08:30:28;22.80;99.90
21039;DHT22;10678;51.002;4.786;2023-06-22T08:32:54;22.80;99.90
21039;DHT22;10678;51.002;4.786;2023-06-22T08:35:23;23.10;99.90
21039;DHT22;10678;51.002;4.786;2023-06-22T08:37:49;22.90;99.90
21039;DHT22;10678;51.002;4.786;2023-06-22T08:40:20;22.90;99.90
21039;DHT22;10678;51.002;4.786;2023-06-22T08:42:46;22.90;99.90
21039;DHT22;10678;51.002;4.786;2023-06-22T08:45:13;22.90;99.90
21039;DHT22;10678;51.002;4.786;2023-06-22T08:47:39;22.90;99.90
21039;DHT22;10678;51.002;4.786;2023-06-22T08:50:07;22.90;99.90
21039;DHT22;10678;51.002;4.786;2023-06-22T08:52:34;22.90;99.90
21039;DHT22;10678;51.002;4.786;2023-06-22T08:55:00;22.80;99.90
21039;DHT22;10678;51.002;4.786;2023-06-22T08:57:26;22.90;99.90
21039;DHT22;10678;51.002;4.786;2023-06-22T08:59:52;22.80;99.90
21039;DHT22;10678;51.002;4.786;2023-06-22T09:02:18;22.80;99.90
21039;DHT22;10678;51.002;4.786;2023-06-22T09:04:45;22.70;99.90
21039;DHT22;10678;51.002;4.786;2023-06-22T09:07:11;22.60;99.90
21039;DHT22;10678;51.002;4.786;2023-06-22T09:09:37;22.70;99.90
21039;DHT22;10678;51.002;4.786;2023-06-22T09:12:03;22.60;99.90
21039;DHT22;10678;51.002;4.786;2023-06-22T09:14:28;22.70;99.90
21039;DHT22;10678;51.002;4.786;2023-06-22T09:16:54;22.70;99.90
21039;DHT22;10678;51.002;4.786;2023-06-22T09:19:20;22.60;99.90
21039;DHT22;10678;51.002;4.786;2023-06-22T09:21:45;22.60;99.90
21039;DHT22;10678;51.002;4.786;2023-06-22T09:24:11;22.70;99.90
21039;DHT22;10678;51.002;4.786;2023-06-22T09:26:37;22.70;99.90
21039;DHT22;10678;51.002;4.786;2023-06-22T09:29:05;22.70;99.90
21039;DHT22;10678;51.002;4.786;2023-06-22T09:31:31;22.70;99.90
21039;DHT22;10678;51.002;4.786;2023-06-22T09:33:56;22.80;99.90
21039;DHT22;10678;51.002;4.786;2023-06-22T09:36:22;22.80;99.90
21039;DHT22;10678;51.002;4.786;2023-06-22T09:38:48;22.70;99.90
21039;DHT22;10678;51.002;4.786;2023-06-22T09:41:14;22.70;99.90
21039;DHT22;10678;51.002;4.786;2023-06-22T09:43:41;22.50;99.90
21039;DHT22;10678;51.002;4.786;2023-06-22T09:46:06;22.50;99.90
21039;DHT22;10678;51.002;4.786;2023-06-22T09:48:32;22.40;99.90
21039;DHT22;10678;51.002;4.786;2023-06-22T09:50:58;22.40;99.90
21039;DHT22;10678;51.002;4.786;2023-06-22T09:53:23;22.40;99.90
21039;DHT22;10678;51.002;4.786;2023-06-22T09:55:49;22.30;99.90
21039;DHT22;10678;51.002;4.786;2023-06-22T09:58:14;22.20;99.90
21039;DHT22;10678;51.002;4.786;2023-06-22T10:00:40;22.00;99.90
21039;DHT22;10678;51.002;4.786;2023-06-22T10:03:07;21.90;99.90
21039;DHT22;10678;51.002;4.786;2023-06-22T10:05:32;21.80;99.90
21039;DHT22;10678;51.002;4.786;2023-06-22T10:07:58;21.80;99.90
21039;DHT22;10678;51.002;4.786;2023-06-22T10:10:23;21.80;99.90
21039;DHT22;10678;51.002;4.786;2023-06-22T10:12:56;21.80;99.90
21039;DHT22;10678;51.002;4.786;2023-06-22T10:15:22;21.90;99.90
21039;DHT22;10678;51.002;4.786;2023-06-22T10:17:48;21.80;99.90
21039;DHT22;10678;51.002;4.786;2023-06-22T10:20:14;21.80;99.90
21039;DHT22;10678;51.002;4.786;2023-06-22T10:22:44;21.80;99.90
21039;DHT22;10678;51.002;4.786;2023-06-22T10:25:12;21.70;99.90
21039;DHT22;10678;51.002;4.786;2023-06-22T10:27:39;21.70;99.90
21039;DHT22;10678;51.002;4.786;2023-06-22T10:30:11;21.60;99.90
21039;DHT22;10678;51.002;4.786;2023-06-22T10:32:41;21.60;99.90
21039;DHT22;10678;51.002;4.786;2023-06-22T10:35:08;21.50;99.90
21039;DHT22;10678;51.002;4.786;2023-06-22T10:37:36;21.50;99.90
21039;DHT22;10678;51.002;4.786;2023-06-22T10:40:02;21.50;99.90
21039;DHT22;10678;51.002;4.786;2023-06-22T10:42:29;21.40;99.90
21039;DHT22;10678;51.002;4.786;2023-06-22T10:44:54;21.30;99.90
21039;DHT22;10678;51.002;4.786;2023-06-22T10:47:20;21.30;99.90
21039;DHT22;10678;51.002;4.786;2023-06-22T10:49:45;21.30;99.90
21039;DHT22;10678;51.002;4.786;2023-06-22T10:52:11;21.30;99.90
21039;DHT22;10678;51.002;4.786;2023-06-22T10:54:37;21.40;99.90
21039;DHT22;10678;51.002;4.786;2023-06-22T10:57:03;21.50;99.90
21039;DHT22;10678;51.002;4.786;2023-06-22T10:59:29;21.70;99.90
21039;DHT22;10678;51.002;4.786;2023-06-22T11:01:58;21.60;99.90
21039;DHT22;10678;51.002;4.786;2023-06-22T11:04:24;21.70;99.90
21039;DHT22;10678;51.002;4.786;2023-06-22T11:06:50;21.60;99.90
21039;DHT22;10678;51.002;4.786;2023-06-22T11:09:16;21.70;99.90
21039;DHT22;10678;51.002;4.786;2023-06-22T11:11:46;21.70;99.90
21039;DHT22;10678;51.002;4.786;2023-06-22T11:14:12;21.70;99.90
21039;DHT22;10678;51.002;4.786;2023-06-22T11:16:37;21.90;99.90
21039;DHT22;10678;51.002;4.786;2023-06-22T11:19:05;21.90;99.90
21039;DHT22;10678;51.002;4.786;2023-06-22T11:21:31;21.90;99.90
21039;DHT22;10678;51.002;4.786;2023-06-22T11:23:57;21.90;99.90
21039;DHT22;10678;51.002;4.786;2023-06-22T11:26:23;21.90;99.90
21039;DHT22;10678;51.002;4.786;2023-06-22T11:28:48;22.00;99.90
21039;DHT22;10678;51.002;4.786;2023-06-22T11:31:14;22.10;99.90
21039;DHT22;10678;51.002;4.786;2023-06-22T11:33:40;22.10;99.90
21039;DHT22;10678;51.002;4.786;2023-06-22T11:36:05;22.10;99.90
21039;DHT22;10678;51.002;4.786;2023-06-22T11:38:31;22.00;99.90
21039;DHT22;10678;51.002;4.786;2023-06-22T11:40:58;21.90;99.90
21039;DHT22;10678;51.002;4.786;2023-06-22T11:43:24;21.90;99.90
21039;DHT22;10678;51.002;4.786;2023-06-22T11:45:50;21.80;99.90
21039;DHT22;10678;51.002;4.786;2023-06-22T11:48:16;21.80;99.90
21039;DHT22;10678;51.002;4.786;2023-06-22T11:50:42;21.80;99.90
21039;DHT22;10678;51.002;4.786;2023-06-22T11:53:08;21.70;99.90
21039;DHT22;10678;51.002;4.786;2023-06-22T11:55:34;21.70;99.90
21039;DHT22;10678;51.002;4.786;2023-06-22T11:57:59;21.70;99.90
21039;DHT22;10678;51.002;4.786;2023-06-22T12:00:28;21.60;99.90
21039;DHT22;10678;51.002;4.786;2023-06-22T12:02:55;21.60;99.90
21039;DHT22;10678;51.002;4.786;2023-06-22T12:05:21;21.60;99.90
21039;DHT22;10678;51.002;4.786;2023-06-22T12:07:48;21.60;99.90
21039;DHT22;10678;51.002;4.786;2023-06-22T12:10:14;21.50;99.90
21039;DHT22;10678;51.002;4.786;2023-06-22T12:12:40;21.40;99.90
21039;DHT22;10678;51.002;4.786;2023-06-22T12:15:06;21.30;99.90
21039;DHT22;10678;51.002;4.786;2023-06-22T12:17:31;21.10;99.90
21039;DHT22;10678;51.002;4.786;2023-06-22T12:19:58;21.20;99.90
21039;DHT22;10678;51.002;4.786;2023-06-22T12:22:24;21.10;99.90
21039;DHT22;10678;51.002;4.786;2023-06-22T12:24:49;21.20;99.90
21039;DHT22;10678;51.002;4.786;2023-06-22T12:27:16;21.30;99.90
21039;DHT22;10678;51.002;4.786;2023-06-22T12:29:45;21.40;99.90
21039;DHT22;10678;51.002;4.786;2023-06-22T12:32:10;21.50;99.90
21039;DHT22;10678;51.002;4.786;2023-06-22T12:34:38;21.50;99.90
21039;DHT22;10678;51.002;4.786;2023-06-22T12:37:04;21.40;99.90
21039;DHT22;10678;51.002;4.786;2023-06-22T12:39:31;21.50;99.90
21039;DHT22;10678;51.002;4.786;2023-06-22T12:41:57;21.40;99.90
21039;DHT22;10678;51.002;4.786;2023-06-22T12:44:23;21.30;99.90
21039;DHT22;10678;51.002;4.786;2023-06-22T12:46:48;21.30;99.90
21039;DHT22;10678;51.002;4.786;2023-06-22T12:49:14;21.20;99.90
21039;DHT22;10678;51.002;4.786;2023-06-22T12:51:40;21.20;99.90
21039;DHT22;10678;51.002;4.786;2023-06-22T12:54:07;21.10;99.90
21039;DHT22;10678;51.002;4.786;2023-06-22T12:56:33;21.20;99.90
21039;DHT22;10678;51.002;4.786;2023-06-22T12:58:59;21.30;99.90
21039;DHT22;10678;51.002;4.786;2023-06-22T13:01:27;21.20;99.90
21039;DHT22;10678;51.002;4.786;2023-06-22T13:03:53;21.20;99.90
21039;DHT22;10678;51.002;4.786;2023-06-22T13:06:18;21.20;99.90
21039;DHT22;10678;51.002;4.786;2023-06-22T13:08:44;21.20;99.90
21039;DHT22;10678;51.002;4.786;2023-06-22T13:11:10;21.10;99.90
21039;DHT22;10678;51.002;4.786;2023-06-22T13:13:35;21.10;99.90
21039;DHT22;10678;51.002;4.786;2023-06-22T13:16:01;21.10;99.90
21039;DHT22;10678;51.002;4.786;2023-06-22T13:18:27;21.10;99.90
21039;DHT22;10678;51.002;4.786;2023-06-22T13:20:52;21.20;99.90
21039;DHT22;10678;51.002;4.786;2023-06-22T13:23:20;21.20;99.90
21039;DHT22;10678;51.002;4.786;2023-06-22T13:25:46;21.20;99.90
21039;DHT22;10678;51.002;4.786;2023-06-22T13:28:12;21.20;99.90
21039;DHT22;10678;51.002;4.786;2023-06-22T13:30:40;21.20;99.90
21039;DHT22;10678;51.002;4.786;2023-06-22T13:33:05;21.20;99.90
21039;DHT22;10678;51.002;4.786;2023-06-22T13:35:31;21.20;99.90
21039;DHT22;10678;51.002;4.786;2023-06-22T13:37:57;21.20;99.90
21039;DHT22;10678;51.002;4.786;2023-06-22T13:40:22;21.10;99.90
21039;DHT22;10678;51.002;4.786;2023-06-22T13:42:48;21.10;99.90
21039;DHT22;10678;51.002;4.786;2023-06-22T13:45:14;21.10;99.90
21039;DHT22;10678;51.002;4.786;2023-06-22T13:47:41;21.00;99.90
21039;DHT22;10678;51.002;4.786;2023-06-22T13:50:07;21.10;99.90
21039;DHT22;10678;51.002;4.786;2023-06-22T13:52:33;21.10;99.90
21039;DHT22;10678;51.002;4.786;2023-06-22T13:54:59;21.00;99.90
21039;DHT22;10678;51.002;4.786;2023-06-22T13:57:24;21.00;99.90
21039;DHT22;10678;51.002;4.786;2023-06-22T13:59:50;20.90;99.90
21039;DHT22;10678;51.002;4.786;2023-06-22T14:02:15;21.00;99.90
21039;DHT22;10678;51.002;4.786;2023-06-22T14:04:41;21.00;99.90
21039;DHT22;10678;51.002;4.786;2023-06-22T14:07:07;21.00;99.90
21039;DHT22;10678;51.002;4.786;2023-06-22T14:09:33;20.90;99.90
21039;DHT22;10678;51.002;4.786;2023-06-22T14:12:03;21.00;99.90
21039;DHT22;10678;51.002;4.786;2023-06-22T14:14:29;21.00;99.90
21039;DHT22;10678;51.002;4.786;2023-06-22T14:16:54;21.00;99.90
21039;DHT22;10678;51.002;4.786;2023-06-22T14:19:20;21.10;99.90
21039;DHT22;10678;51.002;4.786;2023-06-22T14:21:45;21.20;99.90
21039;DHT22;10678;51.002;4.786;2023-06-22T14:24:11;21.40;99.90
21039;DHT22;10678;51.002;4.786;2023-06-22T14:26:37;21.30;99.90
21039;DHT22;10678;51.002;4.786;2023-06-22T14:29:02;21.20;99.90
21039;DHT22;10678;51.002;4.786;2023-06-22T14:31:29;21.20;99.90
21039;DHT22;10678;51.002;4.786;2023-06-22T14:33:54;21.20;99.90
21039;DHT22;10678;51.002;4.786;2023-06-22T14:36:20;21.10;99.90
21039;DHT22;10678;51.002;4.786;2023-06-22T14:38:46;21.10;99.90
21039;DHT22;10678;51.002;4.786;2023-06-22T14:41:12;21.10;99.90
21039;DHT22;10678;51.002;4.786;2023-06-22T14:43:37;21.20;99.90
21039;DHT22;10678;51.002;4.786;2023-06-22T14:46:03;21.10;99.90
21039;DHT22;10678;51.002;4.786;2023-06-22T14:48:29;21.10;99.90
21039;DHT22;10678;51.002;4.786;2023-06-22T14:50:54;21.10;99.90
21039;DHT22;10678;51.002;4.786;2023-06-22T14:53:20;21.20;99.90
21039;DHT22;10678;51.002;4.786;2023-06-22T14:55:46;21.20;99.90
21039;DHT22;10678;51.002;4.786;2023-06-22T14:58:12;21.20;99.90
21039;DHT22;10678;51.002;4.786;2023-06-22T15:00:37;21.20;99.90
21039;DHT22;10678;51.002;4.786;2023-06-22T15:03:04;21.30;99.90
21039;DHT22;10678;51.002;4.786;2023-06-22T15:05:32;21.30;99.90
21039;DHT22;10678;51.002;4.786;2023-06-22T15:07:57;21.10;99.90
21039;DHT22;10678;51.002;4.786;2023-06-22T15:10:23;21.10;99.90
21039;DHT22;10678;51.002;4.786;2023-06-22T15:12:49;21.20;99.90
21039;DHT22;10678;51.002;4.786;2023-06-22T15:15:15;21.20;99.90
21039;DHT22;10678;51.002;4.786;2023-06-22T15:17:41;21.10;99.90
21039;DHT22;10678;51.002;4.786;2023-06-22T15:20:07;21.10;99.90
21039;DHT22;10678;51.002;4.786;2023-06-22T15:22:32;21.20;99.90
21039;DHT22;10678;51.002;4.786;2023-06-22T15:24:58;21.10;99.90
21039;DHT22;10678;51.002;4.786;2023-06-22T15:27:24;21.20;99.90
21039;DHT22;10678;51.002;4.786;2023-06-22T15:29:50;21.10;99.90
21039;DHT22;10678;51.002;4.786;2023-06-22T15:32:16;21.20;99.90
21039;DHT22;10678;51.002;4.786;2023-06-22T15:34:41;21.30;99.90
21039;DHT22;10678;51.002;4.786;2023-06-22T15:37:07;21.40;99.90